createdAt,value
2023-03-08T00:01:16.143Z,24.43
2023-03-08T00:03:47.165Z,24.43
2023-03-08T00:06:18.939Z,24.43
2023-03-08T00:08:49.866Z,24.43
2023-03-08T00:11:21.927Z,24.43
2023-03-08T00:13:52.530Z,24.43
2023-03-08T00:16:23.263Z,24.44
2023-03-08T00:18:53.822Z,24.42
2023-03-08T00:21:24.789Z,24.42
2023-03-08T00:23:56.847Z,24.43
2023-03-08T00:26:29.729Z,24.42
2023-03-08T00:29:00.431Z,24.43
2023-03-08T00:31:31.146Z,24.42
2023-03-08T00:34:01.257Z,24.43
2023-03-08T00:36:31.502Z,24.43
2023-03-08T00:39:01.948Z,24.42
2023-03-08T00:41:34.113Z,24.43
2023-03-08T00:44:04.310Z,24.43
2023-03-08T00:46:34.321Z,24.42
2023-03-08T00:49:05.449Z,24.41
2023-03-08T00:51:36.028Z,24.40
2023-03-08T00:54:06.342Z,24.41
2023-03-08T00:56:38.819Z,24.40
2023-03-08T00:59:09.450Z,24.37
2023-03-08T01:01:39.852Z,24.35
2023-03-08T01:04:09.894Z,24.35
2023-03-08T01:06:40.362Z,24.33
2023-03-08T01:09:11.470Z,24.32
2023-03-08T01:11:44.719Z,24.28
2023-03-08T01:14:15.194Z,24.27
2023-03-08T01:16:45.935Z,24.25
2023-03-08T01:19:16.578Z,24.21
2023-03-08T01:21:46.611Z,24.18
2023-03-08T01:24:16.650Z,24.17
2023-03-08T01:26:48.724Z,24.14
2023-03-08T01:29:19.258Z,24.09
2023-03-08T01:31:49.813Z,24.05
2023-03-08T01:34:20.352Z,24.01
2023-03-08T01:36:50.952Z,23.99
2023-03-08T01:39:21.523Z,23.96
2023-03-08T01:41:54.241Z,23.96
2023-03-08T01:44:24.606Z,23.93
2023-03-08T01:46:56.509Z,23.90
2023-03-08T01:49:31.540Z,23.87
2023-03-08T01:52:08.848Z,23.83
2023-03-08T01:54:43.631Z,23.82
2023-03-08T01:57:24.992Z,23.82
2023-03-08T02:00:01.579Z,23.81
2023-03-08T02:02:42.740Z,23.80
2023-03-08T02:05:13.774Z,23.79
2023-03-08T02:07:44.183Z,23.78
2023-03-08T02:10:15.011Z,23.79
2023-03-08T02:12:48.453Z,23.79
2023-03-08T02:15:22.822Z,23.79
2023-03-08T02:17:53.551Z,23.79
2023-03-08T02:20:31.128Z,23.79
2023-03-08T02:23:15.354Z,23.79
2023-03-08T02:25:54.443Z,23.76
2023-03-08T02:28:27.976Z,23.75
2023-03-08T02:30:59.700Z,23.73
2023-03-08T02:33:31.088Z,23.72
2023-03-08T02:36:01.741Z,23.73
2023-03-08T02:38:33.739Z,23.73
2023-03-08T02:41:04.294Z,23.73
2023-03-08T02:43:34.971Z,23.72
2023-03-08T02:46:06.030Z,23.72
2023-03-08T02:48:36.459Z,23.72
2023-03-08T02:51:07.235Z,23.71
2023-03-08T02:53:39.701Z,23.70
2023-03-08T02:56:10.419Z,23.70
2023-03-08T02:58:40.958Z,23.70
2023-03-08T03:01:15.458Z,23.71
2023-03-08T03:03:46.036Z,23.72
2023-03-08T03:06:18.125Z,23.74
2023-03-08T03:08:50.461Z,23.76
2023-03-08T03:11:23.269Z,23.78
2023-03-08T03:14:01.635Z,23.80
2023-03-08T03:16:32.473Z,23.80
2023-03-08T03:19:02.546Z,23.82
2023-03-08T03:21:33.168Z,23.84
2023-03-08T03:24:05.485Z,23.86
2023-03-08T03:26:36.338Z,23.88
2023-03-08T03:29:06.437Z,23.89
2023-03-08T03:31:36.520Z,23.90
2023-03-08T03:34:07.145Z,23.93
2023-03-08T03:36:37.178Z,23.96
2023-03-08T03:39:09.801Z,23.96
2023-03-08T03:41:40.354Z,23.96
2023-03-08T03:44:10.967Z,23.97
2023-03-08T03:46:41.277Z,23.98
2023-03-08T03:49:11.852Z,24.00
2023-03-08T03:51:41.849Z,23.99
2023-03-08T03:54:13.859Z,24.01
2023-03-08T03:56:44.444Z,24.02
2023-03-08T03:59:15.016Z,24.03
2023-03-08T04:01:45.629Z,24.03
2023-03-08T04:04:15.531Z,24.05
2023-03-08T04:06:45.962Z,24.04
2023-03-08T04:09:29.171Z,24.06
2023-03-08T04:12:02.865Z,24.06
2023-03-08T04:14:33.569Z,24.05
2023-03-08T04:17:03.560Z,24.06
2023-03-08T04:19:34.213Z,24.08
2023-03-08T04:22:04.814Z,24.09
2023-03-08T04:24:37.154Z,24.10
2023-03-08T04:27:07.810Z,24.10
2023-03-08T04:29:38.327Z,24.10
2023-03-08T04:32:09.837Z,24.11
2023-03-08T04:34:40.638Z,24.11
2023-03-08T04:37:11.538Z,24.11
2023-03-08T04:39:43.771Z,24.13
2023-03-08T04:42:14.313Z,24.14
2023-03-08T04:44:45.002Z,24.16
2023-03-08T04:47:15.480Z,24.18
2023-03-08T04:49:46.078Z,24.21
2023-03-08T04:52:16.747Z,24.24
2023-03-08T04:54:49.412Z,24.28
2023-03-08T04:57:20.983Z,24.31
2023-03-08T04:59:51.840Z,24.35
2023-03-08T05:02:24.121Z,24.40
2023-03-08T05:04:55.804Z,24.44
2023-03-08T05:07:26.639Z,24.48
2023-03-08T05:09:59.158Z,24.50
2023-03-08T05:12:29.750Z,24.52
2023-03-08T05:14:59.762Z,24.54
2023-03-08T05:17:29.784Z,24.54
2023-03-08T05:20:00.399Z,24.55
2023-03-08T05:22:31.021Z,24.55
2023-03-08T05:25:03.653Z,24.57
2023-03-08T05:27:35.258Z,24.58
2023-03-08T05:30:06.094Z,24.59
2023-03-08T05:32:36.166Z,24.60
2023-03-08T05:35:06.639Z,24.61
2023-03-08T05:37:37.215Z,24.64
2023-03-08T05:40:12.062Z,24.66
2023-03-08T05:42:42.254Z,24.65
2023-03-08T05:45:13.846Z,24.66
2023-03-08T05:47:44.328Z,24.67
2023-03-08T05:50:15.897Z,24.68
2023-03-08T05:52:45.857Z,24.69
2023-03-08T05:55:18.221Z,24.70
2023-03-08T05:57:48.424Z,24.71
2023-03-08T06:00:19.793Z,24.74
2023-03-08T06:02:50.014Z,24.79
2023-03-08T06:05:20.322Z,24.86
2023-03-08T06:07:50.787Z,24.95
2023-03-08T06:10:23.845Z,25.04
2023-03-08T06:12:54.585Z,25.14
2023-03-08T06:15:25.194Z,25.26
2023-03-08T06:17:56.692Z,25.39
2023-03-08T06:20:27.142Z,25.51
2023-03-08T06:22:57.697Z,25.64
2023-03-08T06:25:30.028Z,25.76
2023-03-08T06:28:00.668Z,25.88
2023-03-08T06:30:31.328Z,26.00
2023-03-08T06:33:01.839Z,26.08
2023-03-08T06:35:31.911Z,26.16
2023-03-08T06:38:02.485Z,26.19
2023-03-08T06:40:34.957Z,26.22
2023-03-08T06:43:05.486Z,26.24
2023-03-08T06:45:35.687Z,26.25
2023-03-08T06:48:06.228Z,26.26
2023-03-08T06:50:36.713Z,26.26
2023-03-08T06:53:07.178Z,26.25
2023-03-08T06:55:39.829Z,26.28
2023-03-08T06:58:10.851Z,26.33
2023-03-08T07:00:41.799Z,26.39
2023-03-08T07:03:13.716Z,26.47
2023-03-08T07:05:44.804Z,26.54
2023-03-08T07:08:14.964Z,26.60
2023-03-08T07:10:47.526Z,26.65
2023-03-08T07:13:17.976Z,26.70
2023-03-08T07:15:48.039Z,26.75
2023-03-08T07:18:18.658Z,26.80
2023-03-08T07:20:55.273Z,26.86
2023-03-08T07:23:25.952Z,26.91
2023-03-08T07:25:58.937Z,26.98
2023-03-08T07:28:28.805Z,27.02
2023-03-08T07:30:59.339Z,27.08
2023-03-08T07:33:29.824Z,27.14
2023-03-08T07:36:03.982Z,27.19
2023-03-08T07:38:34.555Z,27.22
2023-03-08T07:41:07.607Z,27.28
2023-03-08T07:43:41.382Z,27.33
2023-03-08T07:46:11.369Z,27.39
2023-03-08T07:48:41.975Z,27.45
2023-03-08T07:51:12.694Z,27.51
2023-03-08T07:53:43.262Z,27.57
2023-03-08T07:56:16.044Z,27.64
2023-03-08T07:58:46.513Z,27.69
2023-03-08T08:01:18.244Z,27.76
2023-03-08T08:03:48.249Z,27.81
2023-03-08T08:06:18.580Z,27.86
2023-03-08T08:08:49.141Z,27.90
2023-03-08T08:11:22.447Z,27.96
2023-03-08T08:13:52.562Z,28.01
2023-03-08T08:16:23.244Z,28.05
2023-03-08T08:18:55.556Z,28.08
2023-03-08T08:21:27.618Z,28.13
2023-03-08T08:23:58.546Z,28.17
2023-03-08T08:26:30.637Z,28.22
2023-03-08T08:29:01.210Z,28.23
2023-03-08T08:31:33.247Z,28.26
2023-03-08T08:34:05.599Z,28.29
2023-03-08T08:36:37.101Z,28.34
2023-03-08T08:39:07.761Z,28.40
2023-03-08T08:41:40.242Z,28.46
2023-03-08T08:44:11.041Z,28.49
2023-03-08T08:46:41.631Z,28.53
2023-03-08T08:49:12.988Z,28.57
2023-03-08T08:51:43.685Z,28.60
2023-03-08T08:54:14.401Z,28.63
2023-03-08T08:56:47.058Z,28.66
2023-03-08T08:59:17.140Z,28.68
2023-03-08T09:01:47.729Z,28.71
2023-03-08T09:04:21.796Z,28.74
2023-03-08T09:06:54.140Z,28.76
2023-03-08T09:09:27.321Z,28.77
2023-03-08T09:11:59.542Z,28.80
2023-03-08T09:14:30.370Z,28.79
2023-03-08T09:17:01.356Z,28.79
2023-03-08T09:19:31.272Z,28.77
2023-03-08T09:22:01.999Z,28.76
2023-03-08T09:24:37.021Z,28.74
2023-03-08T09:27:11.326Z,28.73
2023-03-08T09:29:42.245Z,28.72
2023-03-08T09:32:12.949Z,28.73
2023-03-08T09:34:43.734Z,28.71
2023-03-08T09:37:15.128Z,28.71
2023-03-08T09:39:47.042Z,28.69
2023-03-08T09:42:28.034Z,28.68
2023-03-08T09:45:19.049Z,28.65
2023-03-08T09:47:57.203Z,28.61
2023-03-08T09:50:46.799Z,28.59
2023-03-08T09:53:29.676Z,28.57
2023-03-08T09:56:06.585Z,28.53
2023-03-08T09:58:46.472Z,28.52
2023-03-08T10:01:32.260Z,28.48
2023-03-08T10:04:54.780Z,28.47
2023-03-08T10:07:50.428Z,28.41
2023-03-08T10:10:44.724Z,28.37
2023-03-08T10:13:34.771Z,28.34
2023-03-08T10:16:24.232Z,28.32
2023-03-08T10:19:01.340Z,28.30
2023-03-08T10:21:36.312Z,28.27
2023-03-08T10:24:20.920Z,28.22
2023-03-08T10:26:51.917Z,28.18
2023-03-08T10:29:23.240Z,28.14
2023-03-08T10:31:55.342Z,28.11
2023-03-08T10:34:34.535Z,28.09
2023-03-08T10:37:10.152Z,28.03
2023-03-08T10:39:53.469Z,28.00
2023-03-08T10:42:28.144Z,27.97
2023-03-08T10:45:03.178Z,27.96
2023-03-08T10:47:38.163Z,27.97
2023-03-08T10:50:21.714Z,27.96
2023-03-08T10:52:53.361Z,27.95
2023-03-08T10:55:26.847Z,27.95
2023-03-08T10:58:01.300Z,27.95
2023-03-08T11:00:38.698Z,27.94
2023-03-08T11:03:20.527Z,27.93
2023-03-08T11:06:01.255Z,27.92
2023-03-08T11:08:36.199Z,27.92
2023-03-08T11:11:13.828Z,27.91
2023-03-08T11:13:55.590Z,27.90
2023-03-08T11:16:58.096Z,27.88
2023-03-08T11:20:00.364Z,27.85
2023-03-08T11:22:55.871Z,27.83
2023-03-08T11:25:46.932Z,27.80
2023-03-08T11:28:51.878Z,27.75
2023-03-08T11:31:33.248Z,27.74
2023-03-08T11:34:33.828Z,27.70
2023-03-08T11:37:15.963Z,27.69
2023-03-08T11:39:55.142Z,27.67
2023-03-08T11:42:42.441Z,27.66
2023-03-08T11:45:29.052Z,27.64
2023-03-08T11:48:48.593Z,27.61
2023-03-08T11:51:29.885Z,27.61
2023-03-08T11:54:18.688Z,27.61
2023-03-08T11:56:59.050Z,27.60
2023-03-08T11:59:38.383Z,27.56
2023-03-08T12:02:21.503Z,27.53
2023-03-08T12:05:02.146Z,27.50
2023-03-08T12:07:38.607Z,27.47
2023-03-08T12:10:24.092Z,27.44
2023-03-08T12:13:02.132Z,27.38
2023-03-08T12:15:40.197Z,27.36
2023-03-08T12:18:26.095Z,27.32
2023-03-08T12:21:07.825Z,27.30
2023-03-08T12:23:52.229Z,27.29
2023-03-08T12:26:34.668Z,27.26
2023-03-08T12:29:15.890Z,27.22
2023-03-08T12:31:49.833Z,27.19
2023-03-08T12:34:31.667Z,27.16
2023-03-08T12:37:02.464Z,27.14
2023-03-08T12:39:37.277Z,27.11
2023-03-08T12:42:33.830Z,27.08
2023-03-08T12:45:32.114Z,27.05
2023-03-08T12:48:21.312Z,27.02
2023-03-08T12:51:05.226Z,26.99
2023-03-08T12:53:43.529Z,26.96
2023-03-08T12:56:29.688Z,26.94
2023-03-08T12:59:05.261Z,26.92
2023-03-08T13:01:44.600Z,26.91
2023-03-08T13:04:47.301Z,26.88
2023-03-08T13:07:34.419Z,26.87
2023-03-08T13:10:20.589Z,26.87
2023-03-08T13:13:38.289Z,26.84
2023-03-08T13:16:40.780Z,26.81
2023-03-08T13:19:25.205Z,26.78
2023-03-08T13:22:07.081Z,26.76
2023-03-08T13:24:48.471Z,26.75
2023-03-08T13:27:48.817Z,26.73
2023-03-08T13:30:26.807Z,26.70
2023-03-08T13:32:59.512Z,26.70
2023-03-08T13:35:30.884Z,26.68
2023-03-08T13:38:03.293Z,26.67
2023-03-08T13:40:33.836Z,26.64
2023-03-08T13:43:08.933Z,26.64
2023-03-08T13:45:39.533Z,26.61
2023-03-08T13:48:15.875Z,26.60
2023-03-08T13:50:51.049Z,26.59
2023-03-08T13:53:25.037Z,26.58
2023-03-08T13:55:58.790Z,26.59
2023-03-08T13:58:37.585Z,26.57
2023-03-08T14:01:16.551Z,26.57
2023-03-08T14:03:49.833Z,26.57
2023-03-08T14:06:24.140Z,26.56
2023-03-08T14:08:59.380Z,26.56
2023-03-08T14:11:33.649Z,26.55
2023-03-08T14:14:07.560Z,26.55
2023-03-08T14:16:42.382Z,26.54
2023-03-08T14:19:24.499Z,26.52
2023-03-08T14:21:58.327Z,26.50
2023-03-08T14:24:32.361Z,26.50
2023-03-08T14:27:06.173Z,26.49
2023-03-08T14:29:38.232Z,26.45
2023-03-08T14:32:31.636Z,26.43
2023-03-08T14:35:19.444Z,26.40
2023-03-08T14:37:50.368Z,26.37
2023-03-08T14:40:31.113Z,26.35
2023-03-08T14:43:05.030Z,26.33
2023-03-08T14:45:42.502Z,26.32
2023-03-08T14:48:30.330Z,26.30
2023-03-08T14:51:07.320Z,26.28
2023-03-08T14:53:40.613Z,26.26
2023-03-08T14:56:16.577Z,26.26
2023-03-08T14:58:51.634Z,26.25
2023-03-08T15:01:29.654Z,26.24
2023-03-08T15:04:01.096Z,26.22
2023-03-08T15:06:37.907Z,26.21
2023-03-08T15:09:11.408Z,26.20
2023-03-08T15:11:42.217Z,26.18
2023-03-08T15:14:14.865Z,26.14
2023-03-08T15:16:45.398Z,26.12
2023-03-08T15:19:16.257Z,26.11
2023-03-08T15:21:48.934Z,26.10
2023-03-08T15:24:21.031Z,26.08
2023-03-08T15:26:53.295Z,26.05
2023-03-08T15:29:30.562Z,26.03
2023-03-08T15:32:01.532Z,26.01
2023-03-08T15:34:32.112Z,25.99
2023-03-08T15:37:04.653Z,25.98
2023-03-08T15:39:34.902Z,25.96
2023-03-08T15:42:05.818Z,25.94
2023-03-08T15:44:36.401Z,25.91
2023-03-08T15:47:07.141Z,25.88
2023-03-08T15:49:37.722Z,25.87
2023-03-08T15:52:10.173Z,25.85
2023-03-08T15:54:45.467Z,25.82
2023-03-08T15:57:16.004Z,25.80
2023-03-08T15:59:46.759Z,25.79
2023-03-08T16:02:20.282Z,25.78
2023-03-08T16:04:56.012Z,25.77
2023-03-08T16:07:28.531Z,25.77
2023-03-08T16:09:59.238Z,25.75
2023-03-08T16:12:30.035Z,25.73
2023-03-08T16:15:00.630Z,25.73
2023-03-08T16:17:32.809Z,25.72
2023-03-08T16:20:05.598Z,25.71
2023-03-08T16:22:38.528Z,25.70
2023-03-08T16:25:10.885Z,25.70
2023-03-08T16:27:41.491Z,25.69
2023-03-08T16:30:14.681Z,25.69
2023-03-08T16:32:45.362Z,25.68
2023-03-08T16:35:15.521Z,25.67
2023-03-08T16:37:47.403Z,25.67
2023-03-08T16:40:17.550Z,25.65
2023-03-08T16:42:48.727Z,25.65
2023-03-08T16:45:19.268Z,25.63
2023-03-08T16:47:49.901Z,25.64
2023-03-08T16:50:20.853Z,25.62
2023-03-08T16:52:57.817Z,25.62
2023-03-08T16:55:28.433Z,25.61
2023-03-08T16:57:58.952Z,25.61
2023-03-08T17:00:28.937Z,25.60
2023-03-08T17:02:59.426Z,25.58
2023-03-08T17:05:29.534Z,25.58
2023-03-08T17:08:02.226Z,25.56
2023-03-08T17:10:32.675Z,25.55
2023-03-08T17:13:03.143Z,25.56
2023-03-08T17:15:33.316Z,25.54
2023-03-08T17:18:03.869Z,25.53
2023-03-08T17:20:34.208Z,25.50
2023-03-08T17:23:06.715Z,25.49
2023-03-08T17:25:41.252Z,25.48
2023-03-08T17:28:13.030Z,25.47
2023-03-08T17:30:43.542Z,25.45
2023-03-08T17:33:14.882Z,25.45
2023-03-08T17:35:46.298Z,25.42
2023-03-08T17:38:18.882Z,25.42
2023-03-08T17:40:49.576Z,25.41
2023-03-08T17:43:20.437Z,25.40
2023-03-08T17:46:01.377Z,25.39
2023-03-08T17:48:32.725Z,25.39
2023-03-08T17:51:07.858Z,25.38
2023-03-08T17:53:40.408Z,25.37
2023-03-08T17:56:12.606Z,25.37
2023-03-08T17:58:43.816Z,25.36
2023-03-08T18:01:16.580Z,25.36
2023-03-08T18:03:47.767Z,25.36
2023-03-08T18:06:27.293Z,25.36
2023-03-08T18:08:59.999Z,25.34
2023-03-08T18:11:31.008Z,25.34
2023-03-08T18:14:01.539Z,25.34
2023-03-08T18:16:32.925Z,25.34
2023-03-08T18:19:03.560Z,25.34
2023-03-08T18:21:39.369Z,25.33
2023-03-08T18:24:14.046Z,25.33
2023-03-08T18:26:44.619Z,25.33
2023-03-08T18:29:15.683Z,25.31
2023-03-08T18:31:46.257Z,25.30
2023-03-08T18:34:16.947Z,25.29
2023-03-08T18:36:47.624Z,25.28
2023-03-08T18:39:19.596Z,25.28
2023-03-08T18:41:50.183Z,25.28
2023-03-08T18:44:20.776Z,25.25
2023-03-08T18:46:51.008Z,25.24
2023-03-08T18:49:22.196Z,25.22
2023-03-08T18:51:52.735Z,25.20
2023-03-08T18:54:25.653Z,25.18
2023-03-08T18:56:58.135Z,25.16
2023-03-08T18:59:33.551Z,25.15
2023-03-08T19:02:04.374Z,25.13
2023-03-08T19:04:34.431Z,25.11
2023-03-08T19:07:04.840Z,25.09
2023-03-08T19:09:37.629Z,25.08
2023-03-08T19:12:08.450Z,25.08
2023-03-08T19:14:38.506Z,25.06
2023-03-08T19:17:08.894Z,25.06
2023-03-08T19:19:40.332Z,25.06
2023-03-08T19:22:11.098Z,25.04
2023-03-08T19:24:43.020Z,25.04
2023-03-08T19:27:13.829Z,25.02
2023-03-08T19:29:44.344Z,25.00
2023-03-08T19:32:16.495Z,24.99
2023-03-08T19:34:48.732Z,24.96
2023-03-08T19:37:19.546Z,24.93
2023-03-08T19:39:52.264Z,24.91
2023-03-08T19:42:22.456Z,24.90
2023-03-08T19:44:53.232Z,24.88
2023-03-08T19:47:23.852Z,24.85
2023-03-08T19:49:54.580Z,24.85
2023-03-08T19:52:25.325Z,24.86
2023-03-08T19:54:57.175Z,24.85
2023-03-08T19:57:27.768Z,24.86
2023-03-08T19:59:59.911Z,24.85
2023-03-08T20:02:30.785Z,24.85
2023-03-08T20:05:02.323Z,24.86
2023-03-08T20:07:32.951Z,24.87
2023-03-08T20:10:15.684Z,24.89
2023-03-08T20:12:48.071Z,24.89
2023-03-08T20:15:18.791Z,24.88
2023-03-08T20:17:48.498Z,24.90
2023-03-08T20:20:19.559Z,24.91
2023-03-08T20:22:50.138Z,24.92
2023-03-08T20:25:22.909Z,24.93
2023-03-08T20:27:53.475Z,24.93
2023-03-08T20:30:24.650Z,24.92
2023-03-08T20:32:55.649Z,24.92
2023-03-08T20:35:26.221Z,24.90
2023-03-08T20:37:56.953Z,24.90
2023-03-08T20:40:29.194Z,24.89
2023-03-08T20:42:59.127Z,24.86
2023-03-08T20:45:30.985Z,24.84
2023-03-08T20:48:01.556Z,24.84
2023-03-08T20:50:32.381Z,24.84
2023-03-08T20:53:04.653Z,24.83
2023-03-08T20:55:36.583Z,24.83
2023-03-08T20:58:08.620Z,24.82
2023-03-08T21:00:41.547Z,24.81
2023-03-08T21:03:15.160Z,24.80
2023-03-08T21:05:47.535Z,24.80
2023-03-08T21:08:24.868Z,24.81
2023-03-08T21:11:01.577Z,24.80
2023-03-08T21:13:37.996Z,24.81
2023-03-08T21:16:11.754Z,24.79
2023-03-08T21:18:52.739Z,24.78
2023-03-08T21:21:34.884Z,24.79
2023-03-08T21:24:09.194Z,24.77
2023-03-08T21:26:44.422Z,24.76
2023-03-08T21:29:18.921Z,24.76
2023-03-08T21:31:52.458Z,24.76
2023-03-08T21:34:25.098Z,24.76
2023-03-08T21:36:56.779Z,24.76
2023-03-08T21:39:28.852Z,24.76
2023-03-08T21:42:08.430Z,24.75
2023-03-08T21:44:39.589Z,24.75
2023-03-08T21:47:10.847Z,24.73
2023-03-08T21:49:43.289Z,24.73
2023-03-08T21:52:15.033Z,24.73
2023-03-08T21:54:45.946Z,24.72
2023-03-08T21:57:18.028Z,24.72
2023-03-08T21:59:48.489Z,24.71
2023-03-08T22:02:19.160Z,24.72
2023-03-08T22:04:50.068Z,24.72
2023-03-08T22:07:20.608Z,24.71
2023-03-08T22:09:50.913Z,24.73
2023-03-08T22:12:22.412Z,24.72
2023-03-08T22:14:53.340Z,24.71
2023-03-08T22:17:23.825Z,24.72
2023-03-08T22:19:55.232Z,24.72
2023-03-08T22:22:25.393Z,24.72
2023-03-08T22:24:56.055Z,24.72
2023-03-08T22:27:28.736Z,24.71
2023-03-08T22:29:59.350Z,24.71
2023-03-08T22:32:33.723Z,24.71
2023-03-08T22:35:03.944Z,24.71
2023-03-08T22:37:34.668Z,24.71
2023-03-08T22:40:06.670Z,24.70
2023-03-08T22:42:39.777Z,24.70
2023-03-08T22:45:13.166Z,24.70
2023-03-08T22:47:43.574Z,24.70
2023-03-08T22:50:15.924Z,24.69
2023-03-08T22:52:45.869Z,24.68
2023-03-08T22:55:15.820Z,24.69
2023-03-08T22:57:48.407Z,24.68
2023-03-08T23:00:20.644Z,24.67
2023-03-08T23:02:51.241Z,24.66
2023-03-08T23:05:23.722Z,24.66
2023-03-08T23:07:55.078Z,24.65
2023-03-08T23:10:25.452Z,24.65
2023-03-08T23:12:57.864Z,24.65
2023-03-08T23:15:28.457Z,24.63
2023-03-08T23:17:58.905Z,24.63
2023-03-08T23:20:29.987Z,24.62
2023-03-08T23:23:00.842Z,24.61
2023-03-08T23:25:31.382Z,24.61
2023-03-08T23:28:03.804Z,24.61
2023-03-08T23:30:34.346Z,24.60
2023-03-08T23:33:04.916Z,24.59
2023-03-08T23:35:35.510Z,24.59
2023-03-08T23:38:06.371Z,24.58
2023-03-08T23:40:36.501Z,24.56
2023-03-08T23:43:08.544Z,24.56
2023-03-08T23:45:41.657Z,24.55
2023-03-08T23:48:12.488Z,24.53
2023-03-08T23:50:43.958Z,24.51
2023-03-08T23:53:14.596Z,24.45
2023-03-08T23:55:45.662Z,24.41
2023-03-08T23:58:17.090Z,24.34
